createdAt,value
2023-03-20T00:02:01.827Z,28.00
2023-03-20T00:04:29.674Z,28.57
2023-03-20T00:06:56.814Z,29.63
2023-03-20T00:09:25.749Z,29.57
2023-03-20T00:11:55.619Z,28.60
2023-03-20T00:14:24.818Z,27.90
2023-03-20T00:16:52.461Z,28.70
2023-03-20T00:19:25.981Z,27.63
2023-03-20T00:21:55.030Z,29.97
2023-03-20T00:24:23.615Z,29.17
2023-03-20T00:26:52.150Z,28.63
2023-03-20T00:29:26.768Z,28.00
2023-03-20T00:31:54.929Z,26.93
2023-03-20T00:34:24.389Z,27.23
2023-03-20T00:36:52.501Z,28.53
2023-03-20T00:39:20.545Z,28.63
2023-03-20T00:41:54.416Z,28.57
2023-03-20T00:44:29.947Z,27.27
2023-03-20T00:47:00.628Z,27.03
2023-03-20T00:49:32.558Z,27.83
2023-03-20T00:51:59.768Z,24.60
2023-03-20T00:54:27.110Z,26.70
2023-03-20T00:57:06.456Z,26.27
2023-03-20T00:59:38.133Z,27.30
2023-03-20T01:02:06.300Z,27.00
2023-03-20T01:04:38.943Z,27.17
2023-03-20T01:07:07.581Z,27.67
2023-03-20T01:09:34.822Z,25.93
2023-03-20T01:12:03.251Z,25.87
2023-03-20T01:14:30.690Z,26.33
2023-03-20T01:16:57.649Z,25.47
2023-03-20T01:19:24.903Z,25.47
2023-03-20T01:21:51.915Z,25.33
2023-03-20T01:24:19.115Z,26.23
2023-03-20T01:26:46.913Z,26.63
2023-03-20T01:29:22.016Z,25.73
2023-03-20T01:31:50.067Z,24.53
2023-03-20T01:34:17.800Z,25.77
2023-03-20T01:36:53.471Z,24.57
2023-03-20T01:39:24.282Z,25.93
2023-03-20T01:41:52.866Z,25.37
2023-03-20T01:44:24.281Z,25.43
2023-03-20T01:46:55.454Z,24.57
2023-03-20T01:49:22.623Z,26.27
2023-03-20T01:51:51.816Z,24.67
2023-03-20T01:54:23.675Z,24.40
2023-03-20T01:56:57.271Z,24.40
2023-03-20T01:59:36.446Z,24.40
2023-03-20T02:02:05.051Z,23.73
2023-03-20T02:04:38.536Z,23.73
2023-03-20T02:07:07.302Z,22.13
2023-03-20T02:09:34.577Z,25.03
2023-03-20T02:12:02.661Z,24.07
2023-03-20T02:14:31.637Z,23.50
2023-03-20T02:16:58.794Z,25.00
2023-03-20T02:19:38.925Z,24.70
2023-03-20T02:22:24.425Z,24.97
2023-03-20T02:25:29.488Z,24.70
2023-03-20T02:28:35.726Z,23.33
2023-03-20T02:31:40.625Z,24.97
2023-03-20T02:34:29.769Z,22.90
2023-03-20T02:37:02.758Z,23.33
2023-03-20T02:40:01.001Z,23.73
2023-03-20T02:42:39.874Z,23.50
2023-03-20T02:45:31.142Z,24.27
2023-03-20T02:48:19.533Z,24.37
2023-03-20T02:51:02.958Z,25.27
2023-03-20T02:53:39.750Z,24.47
2023-03-20T02:56:34.054Z,23.17
2023-03-20T02:59:35.474Z,23.80
2023-03-20T03:02:12.800Z,24.60
2023-03-20T03:04:50.080Z,24.87
2023-03-20T03:07:21.361Z,24.83
2023-03-20T03:10:02.308Z,24.47
2023-03-20T03:12:46.005Z,24.97
2023-03-20T03:15:30.595Z,24.80
2023-03-20T03:17:59.333Z,24.07
2023-03-20T03:20:32.679Z,24.07
2023-03-20T03:23:00.446Z,24.57
2023-03-20T03:25:33.142Z,24.37
2023-03-20T03:28:04.716Z,25.53
2023-03-20T03:30:37.156Z,25.40
2023-03-20T03:33:19.730Z,24.07
2023-03-20T03:35:48.430Z,24.60
2023-03-20T03:38:40.404Z,24.53
2023-03-20T03:41:29.882Z,23.90
2023-03-20T03:44:17.706Z,26.63
2023-03-20T03:47:04.944Z,23.53
2023-03-20T03:49:36.694Z,24.40
2023-03-20T03:52:09.192Z,23.43
2023-03-20T03:55:02.860Z,25.33
2023-03-20T03:57:37.931Z,23.97
2023-03-20T04:00:07.102Z,25.20
2023-03-20T04:02:35.398Z,24.83
2023-03-20T04:05:04.186Z,24.47
2023-03-20T04:07:31.538Z,23.20
2023-03-20T04:09:58.732Z,25.23
2023-03-20T04:12:32.990Z,22.57
2023-03-20T04:15:02.897Z,23.57
2023-03-20T04:17:30.602Z,22.83
2023-03-20T04:19:57.701Z,22.97
2023-03-20T04:22:24.994Z,23.73
2023-03-20T04:24:52.734Z,25.57
2023-03-20T04:27:21.053Z,25.13
2023-03-20T04:29:48.148Z,23.30
2023-03-20T04:32:15.424Z,25.83
2023-03-20T04:34:42.381Z,24.43
2023-03-20T04:37:09.666Z,24.83
2023-03-20T04:39:37.489Z,24.60
2023-03-20T04:42:05.643Z,24.07
2023-03-20T04:44:32.828Z,25.37
2023-03-20T04:47:01.335Z,24.77
2023-03-20T04:49:28.830Z,24.60
2023-03-20T04:51:56.535Z,23.23
2023-03-20T04:54:23.555Z,25.23
2023-03-20T04:56:50.856Z,24.03
2023-03-20T04:59:18.141Z,24.90
2023-03-20T05:01:45.489Z,25.67
2023-03-20T05:04:12.632Z,25.67
2023-03-20T05:06:40.192Z,25.13
2023-03-20T05:09:07.165Z,25.27
2023-03-20T05:11:34.373Z,24.73
2023-03-20T05:14:01.308Z,25.27
2023-03-20T05:16:28.593Z,26.47
2023-03-20T05:18:55.815Z,26.17
2023-03-20T05:21:23.041Z,27.10
2023-03-20T05:23:50.333Z,25.77
2023-03-20T05:26:17.604Z,27.97
2023-03-20T05:28:44.547Z,26.60
2023-03-20T05:31:12.016Z,27.10
2023-03-20T05:33:39.109Z,26.17
2023-03-20T05:36:07.551Z,27.90
2023-03-20T05:38:34.524Z,26.97
2023-03-20T05:41:02.004Z,27.10
2023-03-20T05:43:29.260Z,26.03
2023-03-20T05:45:56.924Z,26.23
2023-03-20T05:48:24.534Z,25.20
2023-03-20T05:50:51.840Z,28.13
2023-03-20T05:53:18.864Z,26.13
2023-03-20T05:55:46.308Z,28.10
2023-03-20T05:58:13.421Z,25.90
2023-03-20T06:00:40.823Z,26.17
2023-03-20T06:03:08.027Z,26.30
2023-03-20T06:05:36.604Z,27.00
2023-03-20T06:08:04.979Z,26.87
2023-03-20T06:10:32.243Z,24.73
2023-03-20T06:13:01.294Z,26.27
2023-03-20T06:15:29.425Z,25.63
2023-03-20T06:17:57.248Z,24.40
2023-03-20T06:20:24.956Z,25.07
2023-03-20T06:22:52.390Z,24.03
2023-03-20T06:25:20.701Z,25.00
2023-03-20T06:27:48.244Z,25.23
2023-03-20T06:30:16.209Z,26.03
2023-03-20T06:32:43.600Z,25.00
2023-03-20T06:35:13.526Z,25.40
2023-03-20T06:37:40.493Z,25.03
2023-03-20T06:40:08.565Z,24.17
2023-03-20T06:42:35.798Z,24.37
2023-03-20T06:45:03.224Z,22.27
2023-03-20T06:47:30.745Z,22.20
2023-03-20T06:49:58.017Z,22.27
2023-03-20T06:52:25.316Z,22.13
2023-03-20T06:54:52.658Z,23.60
2023-03-20T06:57:20.160Z,22.57
2023-03-20T07:48:12.807Z,23.57
2023-03-20T07:50:40.271Z,23.57
2023-03-20T07:53:07.973Z,25.73
2023-03-20T07:55:35.757Z,23.77
2023-03-20T07:58:03.041Z,22.87
2023-03-20T08:00:31.379Z,23.30
2023-03-20T08:02:58.474Z,23.40
2023-03-20T08:05:26.418Z,23.23
2023-03-20T08:07:53.637Z,23.43
2023-03-20T08:10:21.091Z,22.57
2023-03-20T08:12:48.141Z,20.80
2023-03-20T08:15:15.937Z,21.43
2023-03-20T08:17:46.534Z,21.10
2023-03-20T08:20:14.946Z,20.57
2023-03-20T08:22:42.803Z,21.33
2023-03-20T08:25:10.635Z,20.17
2023-03-20T08:27:38.807Z,21.47
2023-03-20T08:30:07.218Z,22.23
2023-03-20T08:32:34.295Z,22.87
2023-03-20T08:35:01.641Z,20.90
2023-03-20T08:37:28.639Z,18.50
2023-03-20T08:39:55.882Z,16.83
2023-03-20T08:42:23.023Z,14.77
2023-03-20T08:44:50.555Z,16.93
2023-03-20T08:47:17.602Z,16.13
2023-03-20T08:49:44.890Z,17.93
2023-03-20T08:52:11.850Z,19.37
2023-03-20T08:54:39.108Z,16.90
2023-03-20T08:57:06.205Z,17.63
2023-03-20T08:59:33.602Z,16.77
2023-03-20T09:02:00.877Z,15.10
2023-03-20T09:04:28.289Z,17.07
2023-03-20T09:06:55.327Z,17.90
2023-03-20T09:09:42.512Z,13.80
2023-03-20T09:12:31.569Z,14.67
2023-03-20T09:15:33.383Z,15.43
2023-03-20T09:18:20.668Z,16.85
2023-03-20T09:20:48.904Z,15.60
2023-03-20T09:23:56.082Z,15.03
2023-03-20T09:26:43.034Z,13.60
2023-03-20T09:29:44.927Z,14.40
2023-03-20T09:32:13.594Z,13.10
2023-03-20T09:35:43.032Z,13.87
2023-03-20T09:38:45.619Z,14.67
2023-03-20T09:41:56.615Z,12.73
2023-03-20T09:44:45.618Z,12.77
2023-03-20T09:47:27.947Z,13.97
2023-03-20T09:50:13.152Z,13.63
2023-03-20T09:53:31.122Z,13.63
2023-03-20T09:56:24.323Z,14.33
2023-03-20T09:59:37.304Z,14.90
2023-03-20T10:02:42.883Z,14.43
2023-03-20T10:05:25.522Z,14.60
2023-03-20T10:07:55.978Z,14.90
2023-03-20T10:10:50.689Z,14.37
2023-03-20T10:13:49.409Z,14.60
2023-03-20T10:16:57.954Z,14.87
2023-03-20T10:19:41.088Z,14.50
2023-03-20T10:22:32.914Z,14.37
2023-03-20T10:25:19.658Z,13.90
2023-03-20T10:27:52.743Z,13.27
2023-03-20T10:30:25.617Z,14.90
2023-03-20T10:33:25.146Z,13.27
2023-03-20T10:35:57.613Z,12.73
2023-03-20T10:38:48.838Z,13.07
2023-03-20T10:41:23.336Z,14.13
2023-03-20T10:43:53.431Z,15.00
2023-03-20T10:46:28.969Z,15.23
2023-03-20T10:49:17.258Z,15.40
2023-03-20T10:51:54.054Z,17.07
2023-03-20T10:54:36.801Z,16.13
2023-03-20T10:57:06.128Z,16.40
2023-03-20T10:59:39.338Z,16.07
2023-03-20T11:02:11.621Z,16.63
2023-03-20T11:04:53.483Z,16.10
2023-03-20T11:07:38.306Z,16.57
2023-03-20T11:10:20.487Z,17.13
2023-03-20T11:12:49.759Z,17.90
2023-03-20T11:15:25.830Z,18.90
2023-03-20T11:17:54.435Z,18.97
2023-03-20T11:20:21.832Z,18.10
2023-03-20T11:22:50.775Z,18.73
2023-03-20T11:25:29.471Z,18.30
2023-03-20T11:28:33.117Z,20.03
2023-03-20T11:31:08.187Z,20.53
2023-03-20T11:33:38.924Z,21.77
2023-03-20T11:36:27.787Z,20.30
2023-03-20T11:39:01.938Z,24.10
2023-03-20T11:41:29.473Z,22.23
2023-03-20T11:43:56.506Z,22.77
2023-03-20T11:46:25.351Z,21.53
2023-03-20T11:49:17.328Z,24.10
2023-03-20T11:51:44.708Z,20.57
2023-03-20T11:54:17.114Z,18.23
2023-03-20T11:56:55.685Z,19.33
2023-03-20T11:59:32.236Z,19.40
2023-03-20T12:02:01.999Z,16.97
2023-03-20T12:04:34.081Z,18.27
2023-03-20T12:07:24.546Z,18.10
2023-03-20T12:09:58.372Z,17.03
2023-03-20T12:12:49.507Z,17.63
2023-03-20T12:15:28.278Z,17.53
2023-03-20T12:18:01.405Z,18.57
2023-03-20T12:20:39.630Z,19.93
2023-03-20T12:23:13.260Z,19.47
2023-03-20T12:25:52.445Z,18.80
2023-03-20T12:28:48.356Z,18.80
2023-03-20T12:31:42.200Z,19.23
2023-03-20T12:34:26.707Z,18.57
2023-03-20T12:36:58.005Z,18.60
2023-03-20T12:39:31.875Z,17.90
2023-03-20T12:42:09.637Z,18.90
2023-03-20T12:44:51.475Z,19.40
2023-03-20T12:47:39.820Z,19.07
2023-03-20T12:50:10.117Z,19.70
2023-03-20T12:52:37.014Z,20.20
2023-03-20T12:55:13.573Z,18.03
2023-03-20T12:58:17.245Z,17.30
2023-03-20T13:00:51.089Z,17.63
2023-03-20T13:03:24.021Z,19.47
2023-03-20T13:06:15.789Z,18.43
2023-03-20T13:08:48.898Z,18.33
2023-03-20T13:11:36.919Z,18.53
2023-03-20T13:14:16.288Z,18.80
2023-03-20T13:16:55.397Z,18.93
2023-03-20T13:19:38.387Z,18.73
2023-03-20T13:22:24.214Z,19.37
2023-03-20T13:24:55.310Z,15.93
2023-03-20T13:27:49.123Z,16.77
2023-03-20T13:30:34.712Z,15.77
2023-03-20T13:33:20.182Z,16.97
2023-03-20T13:35:59.258Z,16.30
2023-03-20T13:38:40.433Z,16.47
2023-03-20T13:41:10.156Z,16.07
2023-03-20T13:43:58.760Z,16.13
2023-03-20T13:46:39.416Z,16.60
2023-03-20T13:49:42.487Z,18.47
2023-03-20T13:52:21.233Z,20.80
2023-03-20T13:55:27.179Z,19.67
2023-03-20T13:58:12.580Z,21.03
2023-03-20T14:00:59.756Z,22.23
2023-03-20T14:03:37.670Z,22.30
2023-03-20T14:06:43.512Z,23.30
2023-03-20T14:09:30.810Z,21.67
2023-03-20T14:12:10.616Z,22.93
2023-03-20T14:14:54.913Z,22.67
2023-03-20T14:17:30.864Z,21.93
2023-03-20T14:20:16.568Z,20.60
2023-03-20T14:22:45.470Z,20.10
2023-03-20T14:25:20.867Z,20.10
2023-03-20T14:28:09.510Z,20.90
2023-03-20T14:30:36.862Z,18.97
2023-03-20T14:33:13.309Z,19.13
2023-03-20T14:35:46.501Z,18.77
2023-03-20T14:38:35.969Z,18.37
2023-03-20T14:41:27.996Z,17.40
2023-03-20T14:44:15.761Z,17.70
2023-03-20T14:46:42.673Z,18.07
2023-03-20T14:49:51.094Z,17.10
2023-03-20T14:52:23.830Z,16.90
2023-03-20T14:54:54.994Z,16.80
2023-03-20T14:57:48.813Z,17.50
2023-03-20T15:00:26.640Z,17.20
2023-03-20T15:03:02.412Z,17.47
2023-03-20T15:05:33.926Z,18.57
2023-03-20T15:08:10.276Z,18.37
2023-03-20T15:10:46.591Z,18.13
2023-03-20T15:13:15.248Z,15.83
2023-03-20T15:16:07.098Z,13.00
2023-03-20T15:18:42.981Z,12.67
2023-03-20T15:21:37.655Z,11.83
2023-03-20T15:24:05.614Z,13.60
2023-03-20T15:26:35.564Z,12.00
2023-03-20T15:29:16.074Z,12.67
2023-03-20T15:31:43.331Z,11.90
2023-03-20T15:34:19.438Z,11.90
2023-03-20T15:36:47.333Z,11.43
2023-03-20T15:39:20.746Z,11.93
2023-03-20T15:41:56.013Z,12.43
2023-03-20T15:44:27.423Z,10.77
2023-03-20T15:47:10.748Z,10.97
2023-03-20T15:49:42.946Z,10.60
2023-03-20T15:52:25.954Z,9.53
2023-03-20T15:54:54.503Z,9.53
2023-03-20T15:57:36.120Z,9.10
2023-03-20T16:00:34.181Z,9.60
2023-03-20T16:03:04.226Z,9.63
2023-03-20T16:05:31.921Z,10.00
2023-03-20T16:08:13.170Z,8.53
2023-03-20T16:10:43.121Z,7.93
2023-03-20T16:13:17.158Z,7.97
2023-03-20T16:15:44.615Z,7.33
2023-03-20T16:18:16.507Z,7.10
2023-03-20T16:21:06.322Z,7.77
2023-03-20T16:23:37.821Z,6.90
2023-03-20T16:26:13.267Z,6.33
2023-03-20T16:28:40.575Z,6.27
2023-03-20T16:31:16.493Z,6.67
2023-03-20T16:33:44.964Z,6.47
2023-03-20T16:36:22.641Z,6.07
2023-03-20T16:39:08.565Z,6.00
2023-03-20T16:41:40.548Z,8.23
2023-03-20T16:44:11.499Z,6.17
2023-03-20T16:46:53.934Z,6.13
2023-03-20T16:49:29.732Z,6.40
2023-03-20T16:52:02.662Z,6.70
2023-03-20T16:54:34.628Z,7.10
2023-03-20T16:57:04.001Z,6.67
2023-03-20T16:59:31.446Z,7.63
2023-03-20T17:02:01.714Z,6.40
2023-03-20T17:04:38.842Z,6.20
2023-03-20T17:07:25.438Z,6.43
2023-03-20T17:09:59.886Z,5.93
2023-03-20T17:12:31.194Z,6.67
2023-03-20T17:14:58.512Z,5.03
2023-03-20T17:17:26.453Z,5.90
2023-03-20T17:19:53.928Z,5.93
2023-03-20T17:22:22.776Z,6.50
2023-03-20T17:24:50.833Z,6.70
2023-03-20T17:27:19.611Z,7.43
2023-03-20T17:29:49.743Z,10.43
2023-03-20T17:32:23.939Z,11.17
2023-03-20T17:34:51.896Z,11.20
2023-03-20T17:37:30.092Z,10.77
2023-03-20T17:39:57.890Z,11.03
2023-03-20T17:42:31.199Z,13.13
2023-03-20T17:44:59.845Z,12.53
2023-03-20T17:47:28.448Z,14.10
2023-03-20T17:49:56.043Z,13.77
2023-03-20T17:52:26.526Z,13.43
2023-03-20T17:54:54.796Z,13.43
2023-03-20T17:57:37.238Z,13.53
2023-03-20T18:00:08.745Z,15.07
2023-03-20T18:02:35.940Z,14.07
2023-03-20T18:05:03.283Z,15.40
2023-03-20T18:07:30.427Z,16.53
2023-03-20T18:09:57.830Z,15.50
2023-03-20T18:12:24.858Z,17.07
2023-03-20T18:14:52.252Z,15.70
2023-03-20T18:17:19.214Z,17.73
2023-03-20T18:19:46.602Z,18.10
2023-03-20T18:22:13.657Z,18.90
2023-03-20T18:24:43.330Z,18.00
2023-03-20T18:27:11.926Z,18.53
2023-03-20T18:29:39.486Z,19.47
2023-03-20T18:32:06.693Z,18.63
2023-03-20T18:34:33.985Z,18.53
2023-03-20T18:37:01.397Z,19.67
2023-03-20T18:39:28.765Z,18.40
2023-03-20T18:41:55.881Z,19.00
2023-03-20T18:44:23.195Z,19.27
2023-03-20T18:46:50.342Z,19.60
2023-03-20T18:49:19.175Z,20.53
2023-03-20T18:51:46.569Z,20.23
2023-03-20T18:54:13.874Z,20.57
2023-03-20T18:56:41.141Z,19.10
2023-03-20T18:59:12.475Z,19.97
2023-03-20T19:01:39.652Z,18.97
2023-03-20T19:04:07.075Z,18.30
2023-03-20T19:06:34.407Z,18.10
2023-03-20T19:09:05.280Z,18.00
2023-03-20T19:11:32.543Z,17.40
2023-03-20T19:13:59.857Z,17.67
2023-03-20T19:16:35.270Z,17.07
2023-03-20T19:19:04.483Z,16.17
2023-03-20T19:21:33.570Z,16.30
2023-03-20T19:24:06.052Z,15.30
2023-03-20T19:26:35.280Z,16.13
2023-03-20T19:29:08.296Z,16.50
2023-03-20T19:31:35.943Z,17.37
2023-03-20T19:34:03.489Z,17.20
2023-03-20T19:36:36.327Z,17.03
2023-03-20T19:39:06.387Z,18.53
2023-03-20T19:41:34.166Z,18.00
2023-03-20T19:44:01.770Z,18.90
2023-03-20T19:46:39.768Z,21.10
2023-03-20T19:49:20.330Z,20.90
2023-03-20T19:51:48.819Z,20.83
2023-03-20T19:54:16.757Z,20.60
2023-03-20T19:56:43.741Z,22.87
2023-03-20T19:59:11.079Z,23.43
2023-03-20T20:01:38.216Z,25.33
2023-03-20T20:04:05.954Z,25.70
2023-03-20T20:06:33.396Z,24.83
2023-03-20T20:09:01.428Z,26.43
2023-03-20T20:11:29.238Z,27.00
2023-03-20T20:16:45.347Z,26.67
2023-03-20T20:19:12.887Z,28.33
2023-03-20T20:24:27.419Z,27.47
2023-03-20T20:27:14.785Z,28.23
2023-03-20T20:29:43.600Z,28.30
2023-03-20T20:32:10.693Z,31.77
2023-03-20T20:38:14.019Z,26.43
2023-03-20T20:40:16.940Z,26.00
2023-03-20T20:42:47.501Z,27.43
2023-03-20T20:45:15.488Z,25.53
2023-03-20T20:47:44.891Z,27.20
2023-03-20T20:50:14.252Z,26.50
2023-03-20T20:52:42.371Z,27.03
2023-03-20T20:55:22.506Z,25.57
2023-03-20T20:57:52.043Z,24.53
2023-03-20T21:00:21.377Z,23.93
2023-03-20T21:02:48.383Z,23.70
2023-03-20T21:05:17.483Z,24.27
2023-03-20T21:07:46.350Z,24.17
2023-03-20T21:10:16.760Z,23.57
2023-03-20T21:12:58.124Z,24.07
2023-03-20T21:15:27.420Z,23.57
2023-03-20T21:18:00.952Z,22.10
2023-03-20T21:20:30.568Z,20.57
2023-03-20T21:22:57.695Z,20.10
2023-03-20T21:25:38.673Z,19.30
2023-03-20T21:28:07.542Z,18.10
2023-03-20T21:30:34.838Z,16.73
2023-03-20T21:33:02.726Z,17.27
2023-03-20T21:35:30.001Z,16.90
2023-03-20T21:40:45.031Z,16.07
2023-03-20T21:43:12.621Z,16.00
2023-03-20T21:49:29.942Z,16.27
2023-03-20T21:57:39.565Z,15.03
2023-03-20T22:00:14.929Z,15.53
2023-03-20T22:02:28.172Z,15.70
2023-03-20T22:34:05.994Z,15.33
2023-03-20T22:36:33.221Z,15.43
2023-03-20T22:39:14.032Z,14.53
2023-03-20T22:42:06.897Z,16.50
2023-03-20T22:46:55.676Z,15.27
2023-03-20T22:49:22.705Z,15.27
2023-03-20T22:52:11.210Z,15.33
2023-03-20T22:54:38.802Z,14.67
2023-03-20T22:57:06.444Z,16.47
2023-03-20T22:59:33.406Z,16.87
2023-03-20T23:02:00.802Z,15.80
2023-03-20T23:04:29.951Z,16.47
2023-03-20T23:06:57.358Z,16.33
2023-03-20T23:09:24.302Z,16.93
2023-03-20T23:11:51.588Z,16.50
2023-03-20T23:14:21.588Z,17.17
2023-03-20T23:16:50.442Z,17.13
2023-03-20T23:19:17.610Z,16.20
2023-03-20T23:21:44.989Z,16.07
2023-03-20T23:24:12.006Z,15.73
2023-03-20T23:26:39.312Z,16.63
2023-03-20T23:29:06.483Z,16.03
2023-03-20T23:31:33.838Z,15.67
2023-03-20T23:34:00.972Z,16.57
2023-03-20T23:36:36.587Z,17.07
2023-03-20T23:39:09.610Z,16.03
2023-03-20T23:44:25.027Z,15.73
2023-03-20T23:46:52.350Z,16.13
2023-03-20T23:49:19.298Z,16.23
2023-03-20T23:51:46.872Z,16.77
2023-03-20T23:54:13.896Z,17.30
2023-03-20T23:56:41.168Z,16.03
2023-03-20T23:59:20.582Z,16.23
